Time;durP1;ratioP1;P1;durP2;ratioP2;P2;SDS_P1;SDS_P2;PMS_P1;PMS_P2;Temp;Humidity;BMP_temperature;BMP_pressure;BME280_temperature;BME280_humidity;BME280_pressure;Samples;Min_cycle;Max_cycle;Signal;HPM_P1;HPM_P2
2022/09/27 00:01:58;;;;;;;;;;;;;;;22.15;63.97;99876.09;7402099;19;1860;-47
2022/09/27 00:04:26;;;;;;;;;;;;;;;22.17;64.23;99887.53;7403263;19;1592;-47
2022/09/27 00:06:55;;;;;;;;;;;;;;;22.17;64.04;99884.81;7401950;19;1450;-47
2022/09/27 00:09:23;;;;;;;;;;;;;;;22.18;64.31;99894.59;7403930;19;1658;-47
2022/09/27 00:11:51;;;;;;;;;;;;;;;22.17;63.91;99876.75;7402029;19;1781;-47
2022/09/27 00:14:22;;;;;;;;;;;;;;;22.17;64.07;99884.81;7402784;19;1390;-47
2022/09/27 00:16:51;;;;;;;;;;;;;;;22.17;63.74;99878.63;7401626;19;1615;-48
2022/09/27 00:19:20;;;;;;;;;;;;;;;22.19;63.66;99893.56;7399217;19;1550;-48
2022/09/27 00:21:49;;;;;;;;;;;;;;;22.17;63.97;99865.97;7399714;19;1865;-47
2022/09/27 00:24:18;;;;;;;;;;;;;;;22.19;63.88;99863.94;7402563;19;1598;-48
2022/09/27 00:26:47;;;;;;;;;;;;;;;22.15;63.76;99842.94;7401916;19;1937;-48
2022/09/27 00:29:15;;;;;;;;;;;;;;;22.18;63.99;99856.91;7401764;19;1536;-47
2022/09/27 00:31:46;;;;;;;;;;;;;;;22.16;63.85;99841.91;7402783;19;1365;-47
2022/09/27 00:34:40;;;;;;;;;;;;;;;22.13;63.82;99851.19;7403037;19;1477;-47
2022/09/27 00:37:08;;;;;;;;;;;;;;;22.13;63.79;99839.59;7402225;19;1580;-49
2022/09/27 00:39:39;;;;;;;;;;;;;;;22.14;63.54;99844.78;7401684;19;1519;-47
2022/09/27 00:42:13;;;;;;;;;;;;;;;22.17;63.93;99865.16;7400016;19;1937;-48
2022/09/27 00:45:16;;;;;;;;;;;;;;;22.17;63.69;99863.28;7402249;19;1608;-47
2022/09/27 00:47:56;;;;;;;;;;;;;;;22.12;63.64;99837.91;7400015;19;1346;-47
2022/09/27 00:50:31;;;;;;;;;;;;;;;22.11;63.81;99845.16;7401336;19;1768;-47
2022/09/27 00:53:14;;;;;;;;;;;;;;;22.10;63.65;99819.22;7400993;19;1925;-47
2022/09/27 00:55:53;;;;;;;;;;;;;;;22.16;63.42;99828.44;7400176;19;1501;-47
2022/09/27 00:58:24;;;;;;;;;;;;;;;22.21;63.10;99812.59;7402097;19;1554;-48
2022/09/27 01:00:57;;;;;;;;;;;;;;;22.87;61.06;99799.41;7400796;19;1757;-48
2022/09/27 01:03:33;;;;;;;;;;;;;;;22.89;60.83;99800.06;7399481;19;1851;-47
2022/09/27 01:06:02;;;;;;;;;;;;;;;23.17;60.29;99796.75;7401388;19;1488;-47
2022/09/27 01:08:32;;;;;;;;;;;;;;;23.08;60.33;99795.16;7402216;19;1641;-48
2022/09/27 01:11:20;;;;;;;;;;;;;;;22.81;61.29;99792.06;7401014;19;1757;-47
2022/09/27 01:13:57;;;;;;;;;;;;;;;22.74;61.67;99796.50;7400024;19;1447;-48
2022/09/27 01:16:29;;;;;;;;;;;;;;;23.06;60.58;99821.47;7401136;19;1655;-47
2022/09/27 01:19:09;;;;;;;;;;;;;;;23.13;60.14;99807.06;7400791;19;1689;-47
2022/09/27 01:21:49;;;;;;;;;;;;;;;22.86;60.94;99804.97;7399375;19;1863;-47
2022/09/27 01:24:38;;;;;;;;;;;;;;;22.72;62.01;99820.09;7401306;19;1764;-47
2022/09/27 01:27:22;;;;;;;;;;;;;;;22.95;60.81;99815.50;7397224;19;1732;-48
2022/09/27 01:30:05;;;;;;;;;;;;;;;23.23;60.09;99834.59;7396868;19;1411;-47
2022/09/27 01:32:44;;;;;;;;;;;;;;;23.07;60.54;99824.00;7397305;19;1955;-48
2022/09/27 01:35:19;;;;;;;;;;;;;;;22.85;61.40;99825.72;7397636;19;2133;-47
2022/09/27 01:37:53;;;;;;;;;;;;;;;22.68;62.07;99829.59;7397721;19;2056;-47
2022/09/27 01:40:25;;;;;;;;;;;;;;;22.98;60.63;99819.72;7396339;19;1656;-48
2022/09/27 01:43:07;;;;;;;;;;;;;;;23.18;60.14;99820.03;7398804;19;1864;-48
2022/09/27 01:45:41;;;;;;;;;;;;;;;22.99;60.74;99811.41;7398880;19;1387;-47
2022/09/27 01:48:17;;;;;;;;;;;;;;;22.82;61.45;99815.31;7399965;19;1354;-47
2022/09/27 01:50:57;;;;;;;;;;;;;;;22.66;62.02;99827.09;7400325;19;1500;-48
2022/09/27 01:53:35;;;;;;;;;;;;;;;23.03;60.65;99820.84;7408276;19;1647;-47
2022/09/27 01:56:08;;;;;;;;;;;;;;;23.22;60.09;99821.31;7406545;19;1574;-47
2022/09/27 01:58:44;;;;;;;;;;;;;;;23.09;60.49;99826.53;7406157;19;1310;-47
2022/09/27 02:01:14;;;;;;;;;;;;;;;22.88;61.24;99832.59;7400161;19;3327;-63
2022/09/27 02:03:48;;;;;;;;;;;;;;;22.70;61.82;99809.53;7406631;19;1855;-63
2022/09/27 02:06:19;;;;;;;;;;;;;;;22.98;60.98;99817.84;7408877;19;1305;-64
2022/09/27 02:08:51;;;;;;;;;;;;;;;23.23;60.29;99814.88;7410592;19;1315;-64
2022/09/27 02:11:19;;;;;;;;;;;;;;;23.25;60.36;99826.31;7408219;19;1495;-64
2022/09/27 02:13:51;;;;;;;;;;;;;;;23.00;60.82;99810.41;7409252;19;1280;-64
2022/09/27 02:16:24;;;;;;;;;;;;;;;22.82;61.32;99809.94;7409377;19;1407;-64
2022/09/27 02:18:57;;;;;;;;;;;;;;;22.70;61.76;99814.06;7408980;19;1517;-65
2022/09/27 02:21:31;;;;;;;;;;;;;;;23.12;60.30;99804.56;7409737;19;1403;-63
2022/09/27 02:24:02;;;;;;;;;;;;;;;23.33;59.80;99801.94;7408412;19;1858;-63
2022/09/27 02:26:34;;;;;;;;;;;;;;;23.10;60.14;99777.81;7407324;19;1468;-64
2022/09/27 02:29:07;;;;;;;;;;;;;;;22.92;61.09;99778.13;7408998;19;1291;-64
2022/09/27 02:31:36;;;;;;;;;;;;;;;22.75;61.51;99774.75;7408809;19;1320;-64
2022/09/27 02:34:08;;;;;;;;;;;;;;;22.73;61.62;99784.91;7408557;19;1429;-64
2022/09/27 02:36:37;;;;;;;;;;;;;;;23.11;60.53;99786.72;7407962;19;1280;-64
2022/09/27 02:39:06;;;;;;;;;;;;;;;23.20;59.97;99775.66;7408902;19;1526;-64
2022/09/27 02:41:35;;;;;;;;;;;;;;;22.92;60.34;99750.31;7407440;19;1566;-64
2022/09/27 02:44:05;;;;;;;;;;;;;;;22.93;61.13;99779.78;7406365;19;1842;-64
2022/09/27 02:46:49;;;;;;;;;;;;;;;22.76;61.56;99767.50;7408036;19;1260;-64
2022/09/27 02:49:27;;;;;;;;;;;;;;;22.84;61.31;99762.06;7408574;19;1414;-64
2022/09/27 02:52:02;;;;;;;;;;;;;;;23.24;59.88;99762.63;7407842;19;1316;-64
2022/09/27 02:54:37;;;;;;;;;;;;;;;23.21;59.93;99771.09;7409546;19;1442;-64
2022/09/27 02:57:13;;;;;;;;;;;;;;;23.02;60.68;99767.94;7407801;19;1480;-64
2022/09/27 02:59:45;;;;;;;;;;;;;;;22.89;61.39;99758.78;7408135;19;1759;-64
2022/09/27 03:02:16;;;;;;;;;;;;;;;22.66;61.84;99762.41;7405039;19;1865;-64
2022/09/27 03:04:50;;;;;;;;;;;;;;;23.00;60.73;99764.56;7406230;19;1319;-64
2022/09/27 03:07:18;;;;;;;;;;;;;;;23.32;59.69;99762.53;7407861;19;1498;-56
2022/09/27 03:09:48;;;;;;;;;;;;;;;23.31;59.71;99755.44;7408345;19;1275;-56
2022/09/27 03:12:21;;;;;;;;;;;;;;;23.07;60.34;99748.50;7408389;19;1657;-56
2022/09/27 03:14:49;;;;;;;;;;;;;;;22.91;60.96;99754.88;7407744;19;1705;-56
2022/09/27 03:17:18;;;;;;;;;;;;;;;22.79;61.19;99751.81;7407516;19;1474;-56
2022/09/27 03:19:49;;;;;;;;;;;;;;;22.73;61.51;99762.50;7406151;19;1423;-56
2022/09/27 03:22:17;;;;;;;;;;;;;;;23.21;60.12;99763.00;7406586;19;1878;-57
2022/09/27 03:24:46;;;;;;;;;;;;;;;23.45;59.76;99759.13;7406576;19;1318;-59
2022/09/27 03:27:15;;;;;;;;;;;;;;;23.31;60.57;99760.84;7405752;19;1519;-57
2022/09/27 03:29:43;;;;;;;;;;;;;;;23.11;61.02;99748.97;7402289;19;1695;-57
2022/09/27 03:32:12;;;;;;;;;;;;;;;22.90;61.64;99753.22;7404852;19;1344;-57
2022/09/27 03:34:40;;;;;;;;;;;;;;;22.80;62.00;99753.50;7407139;19;1411;-56
2022/09/27 03:37:11;;;;;;;;;;;;;;;23.09;61.30;99749.16;7403262;19;1501;-57
2022/09/27 03:39:39;;;;;;;;;;;;;;;23.37;60.51;99741.19;7405819;19;1224;-57
2022/09/27 03:42:08;;;;;;;;;;;;;;;23.37;60.70;99762.78;7405083;19;1884;-57
2022/09/27 03:44:36;;;;;;;;;;;;;;;23.13;61.10;99755.00;7403229;19;1315;-58
2022/09/27 03:47:05;;;;;;;;;;;;;;;22.97;61.22;99764.09;7401989;19;1280;-58
2022/09/27 03:49:34;;;;;;;;;;;;;;;22.85;61.61;99771.81;7403140;19;1339;-58
2022/09/27 03:52:02;;;;;;;;;;;;;;;22.70;61.93;99765.56;7403417;19;1268;-58
2022/09/27 03:54:33;;;;;;;;;;;;;;;22.66;62.25;99761.56;7404689;19;1427;-58
2022/09/27 03:57:02;;;;;;;;;;;;;;;22.61;62.08;99743.25;7405671;19;1503;-58
2022/09/27 03:59:30;;;;;;;;;;;;;;;22.52;62.20;99733.56;7406707;19;1383;-58
2022/09/27 04:01:59;;;;;;;;;;;;;;;22.52;62.37;99758.69;7404861;19;1354;-58
2022/09/27 04:04:27;;;;;;;;;;;;;;;22.47;62.34;99744.91;7404079;19;1861;-58
2022/09/27 04:06:57;;;;;;;;;;;;;;;22.45;62.29;99738.88;7405649;19;1427;-58
2022/09/27 04:09:26;;;;;;;;;;;;;;;22.44;62.23;99737.19;7407330;19;1498;-58
2022/09/27 04:11:57;;;;;;;;;;;;;;;22.44;62.41;99756.03;7406009;19;1734;-58
2022/09/27 04:14:25;;;;;;;;;;;;;;;22.39;62.27;99745.81;7405870;19;1248;-58
2022/09/27 04:16:54;;;;;;;;;;;;;;;22.37;62.47;99752.41;7405980;19;1232;-58
2022/09/27 04:19:22;;;;;;;;;;;;;;;22.37;62.34;99736.25;7406033;19;1411;-58
2022/09/27 04:21:51;;;;;;;;;;;;;;;22.39;62.38;99740.44;7405034;19;1302;-58
2022/09/27 04:24:19;;;;;;;;;;;;;;;22.35;62.10;99724.81;7405027;19;1853;-58
2022/09/27 04:26:48;;;;;;;;;;;;;;;22.33;62.31;99718.78;7404783;19;1577;-66
2022/09/27 04:29:19;;;;;;;;;;;;;;;22.33;62.37;99710.72;7404911;19;1856;-66
2022/09/27 04:31:47;;;;;;;;;;;;;;;22.33;62.31;99710.72;7405569;19;1315;-66
2022/09/27 04:34:16;;;;;;;;;;;;;;;22.30;62.27;99716.44;7405310;19;1307;-66
2022/09/27 04:36:42;;;;;;;;;;;;;;;22.29;62.14;99723.69;7403931;19;1283;-66
2022/09/27 04:39:12;;;;;;;;;;;;;;;22.29;62.32;99723.69;7405829;19;1395;-66
2022/09/27 04:41:41;;;;;;;;;;;;;;;22.26;62.25;99728.59;7404265;19;1447;-66
2022/09/27 04:44:10;;;;;;;;;;;;;;;22.26;62.38;99731.28;7403066;19;1865;-58
2022/09/27 04:46:41;;;;;;;;;;;;;;;22.25;62.31;99714.31;7404418;19;1228;-66
2022/09/27 04:49:09;;;;;;;;;;;;;;;22.23;62.43;99703.69;7403800;19;1525;-66
2022/09/27 04:51:38;;;;;;;;;;;;;;;22.21;62.27;99700.34;7405133;19;1479;-66
2022/09/27 04:54:06;;;;;;;;;;;;;;;22.20;62.41;99685.22;7404543;19;1426;-66
2022/09/27 04:56:37;;;;;;;;;;;;;;;22.22;62.37;99685.88;7401919;19;1782;-66
2022/09/27 04:59:06;;;;;;;;;;;;;;;22.20;62.20;99669.06;7403765;19;1276;-66
2022/09/27 05:01:34;;;;;;;;;;;;;;;22.17;62.33;99677.50;7402713;19;1401;-66
2022/09/27 05:04:05;;;;;;;;;;;;;;;22.20;62.32;99673.59;7401682;19;1860;-66
2022/09/27 05:06:34;;;;;;;;;;;;;;;22.18;62.18;99664.84;7404493;19;1342;-68
2022/09/27 05:09:02;;;;;;;;;;;;;;;22.19;62.20;99672.75;7405293;19;1136;-65
2022/09/27 05:11:31;;;;;;;;;;;;;;;22.29;62.33;99669.00;7401898;19;1557;-58
2022/09/27 05:13:59;;;;;;;;;;;;;;;22.27;62.01;99657.56;7403708;19;1292;-58
2022/09/27 05:16:28;;;;;;;;;;;;;;;22.24;62.19;99675.78;7403881;19;1486;-56
2022/09/27 05:18:57;;;;;;;;;;;;;;;22.22;62.23;99664.31;7403966;19;1191;-57
2022/09/27 05:21:28;;;;;;;;;;;;;;;22.23;62.21;99663.28;7402441;19;1722;-58
2022/09/27 05:23:56;;;;;;;;;;;;;;;22.27;62.34;99657.56;7403957;19;1842;-56
2022/09/27 05:26:25;;;;;;;;;;;;;;;22.25;62.25;99657.75;7404945;19;1577;-56
2022/09/27 05:28:53;;;;;;;;;;;;;;;22.22;62.16;99653.56;7410268;19;1435;-57
2022/09/27 05:31:21;;;;;;;;;;;;;;;22.29;61.63;99660.94;7410198;19;1668;-58
2022/09/27 05:33:50;;;;;;;;;;;;;;;22.24;61.76;99666.84;7410320;19;1696;-59
2022/09/27 05:36:18;;;;;;;;;;;;;;;22.26;62.22;99678.25;7410761;19;1360;-57
2022/09/27 05:38:50;;;;;;;;;;;;;;;22.35;62.10;99684.44;7408867;19;1515;-58
2022/09/27 05:41:18;;;;;;;;;;;;;;;22.28;62.17;99672.69;7411591;19;1597;-59
2022/09/27 05:43:47;;;;;;;;;;;;;;;22.34;62.23;99671.97;7408186;19;1851;-60
2022/09/27 05:46:15;;;;;;;;;;;;;;;22.37;62.09;99677.00;7406968;19;1561;-62
2022/09/27 05:48:44;;;;;;;;;;;;;;;22.42;62.12;99669.19;7409599;19;1446;-61
2022/09/27 05:51:13;;;;;;;;;;;;;;;22.47;62.61;99676.72;7409470;19;1372;-62
2022/09/27 05:53:41;;;;;;;;;;;;;;;22.52;62.58;99671.59;7410909;19;1390;-60
2022/09/27 05:56:12;;;;;;;;;;;;;;;22.52;62.84;99672.47;7408497;19;1554;-59
2022/09/27 05:58:40;;;;;;;;;;;;;;;22.52;63.57;99679.69;7406700;19;1867;-59
2022/09/27 06:01:09;;;;;;;;;;;;;;;22.58;63.52;99690.59;7407634;19;1473;-60
2022/09/27 06:03:39;;;;;;;;;;;;;;;22.46;63.92;99673.19;7408792;19;1854;-59
2022/09/27 06:06:09;;;;;;;;;;;;;;;22.51;63.94;99676.16;7409883;19;1360;-60
2022/09/27 06:08:39;;;;;;;;;;;;;;;22.55;63.39;99664.00;7409349;19;1869;-62
2022/09/27 06:11:09;;;;;;;;;;;;;;;22.54;63.58;99662.34;7409621;19;1617;-60
2022/09/27 06:13:40;;;;;;;;;;;;;;;22.55;63.85;99669.38;7408708;19;1390;-59
2022/09/27 06:16:09;;;;;;;;;;;;;;;22.50;63.83;99661.03;7408721;19;1649;-60
2022/09/27 06:18:38;;;;;;;;;;;;;;;22.50;63.80;99660.19;7410409;19;1521;-59
2022/09/27 06:21:07;;;;;;;;;;;;;;;22.56;63.94;99671.06;7408632;19;1446;-61
2022/09/27 06:23:36;;;;;;;;;;;;;;;22.56;63.62;99671.06;7406980;19;1850;-61
2022/09/27 06:26:05;;;;;;;;;;;;;;;22.55;64.05;99668.56;7407470;19;1467;-61
2022/09/27 06:28:34;;;;;;;;;;;;;;;22.52;64.12;99677.00;7408623;19;1359;-61
2022/09/27 06:31:07;;;;;;;;;;;;;;;22.51;63.63;99688.81;7409571;19;1470;-62
2022/09/27 06:33:36;;;;;;;;;;;;;;;22.57;63.70;99682.69;7409685;19;1391;-62
2022/09/27 06:36:05;;;;;;;;;;;;;;;22.58;63.41;99679.81;7408888;19;1462;-67
2022/09/27 06:38:33;;;;;;;;;;;;;;;22.55;62.35;99668.56;7407020;19;1387;-64
2022/09/27 06:41:03;;;;;;;;;;;;;;;22.57;62.41;99678.13;7408397;19;1391;-63
2022/09/27 06:43:32;;;;;;;;;;;;;;;22.57;63.35;99674.59;7407504;19;1845;-62
2022/09/27 06:46:03;;;;;;;;;;;;;;;22.67;62.93;99677.00;7407812;19;1396;-62
2022/09/27 06:48:36;;;;;;;;;;;;;;;22.57;63.43;99677.28;7407781;19;1511;-61
2022/09/27 06:51:04;;;;;;;;;;;;;;;22.54;62.90;99673.13;7407525;19;1577;-64
2022/09/27 06:53:33;;;;;;;;;;;;;;;22.48;63.47;99675.69;7409861;19;1477;-60
2022/09/27 06:56:02;;;;;;;;;;;;;;;22.58;62.77;99658.25;7408319;19;1624;-60
2022/09/27 07:01:11;;;;;;;;;;;;;;;22.57;63.39;99653.03;7407681;19;1664;-64
2022/09/27 07:03:43;;;;;;;;;;;;;;;22.57;63.35;99672.72;7407767;19;1896;-61
2022/09/27 07:06:17;;;;;;;;;;;;;;;22.56;63.34;99665.69;7407256;19;1673;-61
2022/09/27 07:08:46;;;;;;;;;;;;;;;22.52;63.19;99668.91;7405816;19;1542;-63
2022/09/27 07:11:15;;;;;;;;;;;;;;;22.55;63.07;99672.06;7406895;19;1574;-62
2022/09/27 07:13:43;;;;;;;;;;;;;;;22.53;63.47;99679.50;7406325;19;1855;-62
2022/09/27 07:16:13;;;;;;;;;;;;;;;22.51;63.11;99670.78;7405362;19;1691;-60
2022/09/27 07:18:44;;;;;;;;;;;;;;;22.51;63.60;99670.78;7408614;19;1474;-64
2022/09/27 07:21:15;;;;;;;;;;;;;;;22.51;63.49;99667.25;7406088;19;1363;-67
2022/09/27 07:23:43;;;;;;;;;;;;;;;22.49;64.10;99661.22;7407317;19;1850;-66
2022/09/27 07:26:12;;;;;;;;;;;;;;;22.53;63.98;99674.13;7406454;19;1685;-68
2022/09/27 07:28:41;;;;;;;;;;;;;;;22.51;64.15;99657.31;7406006;19;1372;-68
2022/09/27 07:31:10;;;;;;;;;;;;;;;22.56;64.74;99662.13;7407064;19;1409;-65
2022/09/27 07:33:39;;;;;;;;;;;;;;;22.53;64.75;99649.03;7406571;19;1760;-65
2022/09/27 07:36:13;;;;;;;;;;;;;;;22.57;63.77;99645.78;7407158;19;1561;-68
2022/09/27 07:38:42;;;;;;;;;;;;;;;22.59;64.20;99649.13;7407357;19;1447;-68
2022/09/27 07:41:12;;;;;;;;;;;;;;;22.58;64.63;99646.59;7405250;19;1521;-64
2022/09/27 07:43:41;;;;;;;;;;;;;;;22.48;63.99;99633.41;7405531;19;1865;-70
2022/09/27 07:46:09;;;;;;;;;;;;;;;22.45;64.95;99614.94;7406392;19;1687;-70
2022/09/27 07:48:38;;;;;;;;;;;;;;;22.58;64.45;99625.91;7406008;19;1495;-70
2022/09/27 07:51:09;;;;;;;;;;;;;;;22.61;65.05;99620.13;7403505;19;1408;-66
2022/09/27 07:53:40;;;;;;;;;;;;;;;22.62;64.26;99616.44;7406409;19;1415;-67
2022/09/27 07:56:08;;;;;;;;;;;;;;;22.64;64.92;99621.59;7405371;19;1687;-66
2022/09/27 07:58:37;;;;;;;;;;;;;;;22.61;64.95;99612.06;7405426;19;1439;-69
2022/09/27 08:01:06;;;;;;;;;;;;;;;22.62;64.93;99612.88;7404758;19;1597;-67
2022/09/27 08:03:35;;;;;;;;;;;;;;;22.63;65.57;99601.91;7406289;19;1853;-66
2022/09/27 08:06:04;;;;;;;;;;;;;;;22.61;64.48;99614.75;7406160;19;1478;-65
2022/09/27 08:08:33;;;;;;;;;;;;;;;22.61;64.88;99635.47;7399278;19;1529;-67
2022/09/27 08:11:13;;;;;;;;;;;;;;;22.63;65.03;99641.50;7405744;19;1296;-66
2022/09/27 08:13:41;;;;;;;;;;;;;;;22.64;65.01;99652.09;7403077;19;1331;-70
2022/09/27 08:16:10;;;;;;;;;;;;;;;22.68;65.54;99662.50;7402489;19;1447;-67
2022/09/27 08:18:39;;;;;;;;;;;;;;;22.75;65.88;99652.66;7406073;19;1404;-67
2022/09/27 08:21:07;;;;;;;;;;;;;;;22.64;65.54;99649.41;7405331;19;1446;-68
2022/09/27 08:23:35;;;;;;;;;;;;;;;22.67;65.31;99644.69;7407314;19;1578;-69
2022/09/27 08:26:07;;;;;;;;;;;;;;;22.71;65.23;99668.34;7402981;19;1855;-67
2022/09/27 08:28:35;;;;;;;;;;;;;;;22.66;64.84;99688.78;7404430;19;1363;-66
2022/09/27 08:31:04;;;;;;;;;;;;;;;22.54;66.03;99673.13;7404760;19;1502;-65
2022/09/27 08:33:32;;;;;;;;;;;;;;;22.57;65.62;99678.13;7404942;19;1835;-65
2022/09/27 08:36:02;;;;;;;;;;;;;;;22.57;65.63;99693.44;7404556;19;1490;-66
2022/09/27 08:38:30;;;;;;;;;;;;;;;22.60;66.09;99683.16;7406466;19;1335;-66
2022/09/27 08:41:00;;;;;;;;;;;;;;;22.71;65.90;99689.09;7404932;19;1639;-67
2022/09/27 08:43:36;;;;;;;;;;;;;;;22.74;65.18;99680.63;7404585;19;1676;-67
2022/09/27 08:46:12;;;;;;;;;;;;;;;22.73;65.58;99676.25;7402716;19;1846;-69
2022/09/27 08:48:41;;;;;;;;;;;;;;;22.73;65.30;99652.84;7405165;19;1411;-70
2022/09/27 08:51:13;;;;;;;;;;;;;;;22.71;65.41;99662.13;7404741;19;1383;-72
2022/09/27 08:53:43;;;;;;;;;;;;;;;22.69;65.79;99658.78;7405069;19;1391;-69
2022/09/27 08:56:12;;;;;;;;;;;;;;;22.72;65.55;99661.09;7403906;19;1680;-68
2022/09/27 08:58:47;;;;;;;;;;;;;;;22.72;65.20;99661.09;7403312;19;1494;-65
2022/09/27 09:01:16;;;;;;;;;;;;;;;22.70;66.01;99655.91;7400932;19;1633;-66
2022/09/27 09:03:47;;;;;;;;;;;;;;;22.74;65.75;99637.50;7406482;19;918;-66
2022/09/27 09:06:21;;;;;;;;;;;;;;;22.74;65.78;99630.25;7402729;19;1885;-71
2022/09/27 09:08:57;;;;;;;;;;;;;;;22.76;66.32;99633.59;7405072;19;1330;-66
2022/09/27 09:14:34;;;;;;;;;;;;;;;22.76;66.10;99627.34;7405401;19;1517;-60
2022/09/27 09:17:09;;;;;;;;;;;;;;;22.73;66.09;99616.97;7403723;19;1200;-60
2022/09/27 09:19:53;;;;;;;;;;;;;;;22.68;65.87;99630.16;7404038;19;1645;-61
2022/09/27 09:22:30;;;;;;;;;;;;;;;22.63;65.49;99607.31;7404622;19;1549;-61
2022/09/27 09:25:07;;;;;;;;;;;;;;;22.69;65.10;99605.72;7403271;19;1854;-60
2022/09/27 09:27:39;;;;;;;;;;;;;;;22.66;65.59;99622.28;7404366;19;1383;-60
2022/09/27 09:30:21;;;;;;;;;;;;;;;22.62;65.55;99616.44;7405045;19;1392;-59
2022/09/27 09:32:59;;;;;;;;;;;;;;;22.58;65.38;99615.13;7405073;19;1648;-60
2022/09/27 09:35:30;;;;;;;;;;;;;;;22.58;66.03;99625.91;7403445;19;1593;-59
2022/09/27 09:38:01;;;;;;;;;;;;;;;22.64;65.21;99608.13;7404060;19;1312;-61
2022/09/27 09:40:31;;;;;;;;;;;;;;;22.68;65.79;99614.84;7400781;19;1471;-63
2022/09/27 09:43:04;;;;;;;;;;;;;;;22.67;65.05;99615.03;7404202;19;1530;-68
2022/09/27 09:45:36;;;;;;;;;;;;;;;22.62;65.82;99615.56;7401509;19;1860;-63
2022/09/27 09:48:07;;;;;;;;;;;;;;;22.57;66.45;99597.28;7403019;19;1367;-60
2022/09/27 09:50:41;;;;;;;;;;;;;;;22.68;65.91;99595.13;7402610;19;1546;-59
2022/09/27 09:53:15;;;;;;;;;;;;;;;22.64;65.71;99622.47;7402491;19;1347;-60
2022/09/27 09:55:47;;;;;;;;;;;;;;;22.63;66.58;99625.34;7399461;19;1703;-60
2022/09/27 09:58:22;;;;;;;;;;;;;;;22.72;65.81;99609.91;7403238;19;1450;-58
2022/09/27 10:00:56;;;;;;;;;;;;;;;22.70;66.19;99595.78;7401869;19;1568;-60
2022/09/27 10:03:24;;;;;;;;;;;;;;;22.66;65.84;99611.50;7401016;19;1446;-59
2022/09/27 10:05:53;;;;;;;;;;;;;;;22.68;65.91;99597.81;7400980;19;1868;-60
2022/09/27 10:08:23;;;;;;;;;;;;;;;22.75;66.17;99598.75;7402379;19;1527;-62
2022/09/27 10:10:51;;;;;;;;;;;;;;;22.77;66.33;99600.22;7401414;19;1596;-60
2022/09/27 10:13:21;;;;;;;;;;;;;;;22.71;65.61;99592.91;7406262;19;1415;-59
2022/09/27 10:15:54;;;;;;;;;;;;;;;22.67;66.51;99596.16;7408715;19;1406;-62
2022/09/27 10:18:26;;;;;;;;;;;;;;;22.66;66.09;99578.31;7410134;19;1385;-59
2022/09/27 10:20:57;;;;;;;;;;;;;;;22.63;66.05;99579.53;7409263;19;1391;-58
2022/09/27 10:23:27;;;;;;;;;;;;;;;22.58;66.07;99572.03;7410593;19;1648;-59
2022/09/27 10:25:57;;;;;;;;;;;;;;;22.50;66.46;99561.34;7407608;19;1871;-58
2022/09/27 10:28:31;;;;;;;;;;;;;;;22.47;66.53;99574.34;7409457;19;1553;-58
2022/09/27 10:31:01;;;;;;;;;;;;;;;22.42;66.79;99553.34;7409161;19;1410;-59
2022/09/27 10:33:33;;;;;;;;;;;;;;;22.39;66.81;99551.06;7409223;19;1510;-58
2022/09/27 10:36:02;;;;;;;;;;;;;;;22.45;66.35;99553.00;7408505;19;1407;-66
2022/09/27 10:38:32;;;;;;;;;;;;;;;22.47;66.58;99567.09;7409821;19;1216;-67
2022/09/27 10:41:01;;;;;;;;;;;;;;;22.49;66.59;99548.91;7408109;19;1593;-67
2022/09/27 10:43:31;;;;;;;;;;;;;;;22.44;66.65;99546.78;7408702;19;1597;-67
2022/09/27 10:46:05;;;;;;;;;;;;;;;22.47;66.49;99542.03;7407408;19;1861;-67
2022/09/27 10:48:36;;;;;;;;;;;;;;;22.43;66.76;99525.41;7408140;19;1427;-67
2022/09/27 10:51:06;;;;;;;;;;;;;;;22.43;66.92;99536.19;7408319;19;1474;-67
2022/09/27 10:53:36;;;;;;;;;;;;;;;22.43;66.67;99541.56;7409217;19;1391;-67
2022/09/27 10:56:05;;;;;;;;;;;;;;;22.46;66.62;99545.72;7408484;19;1605;-67
2022/09/27 10:58:35;;;;;;;;;;;;;;;22.23;66.50;99531.34;7406942;19;1454;-68
2022/09/27 11:01:04;;;;;;;;;;;;;;;22.40;66.41;99552.69;7408411;19;1494;-67
2022/09/27 11:03:33;;;;;;;;;;;;;;;22.44;66.43;99549.47;7407333;19;1649;-67
2022/09/27 11:06:20;;;;;;;;;;;;;;;22.41;66.11;99567.84;7404202;19;1845;-67
2022/09/27 11:08:49;;;;;;;;;;;;;;;22.45;66.28;99558.38;7407878;19;1408;-67
2022/09/27 11:11:20;;;;;;;;;;;;;;;22.41;66.39;99549.00;7406923;19;1644;-68
2022/09/27 11:14:09;;;;;;;;;;;;;;;22.40;66.05;99555.41;7405947;19;1367;-68
2022/09/27 11:16:43;;;;;;;;;;;;;;;22.40;66.06;99566.16;7407047;19;1568;-68
2022/09/27 11:19:22;;;;;;;;;;;;;;;22.38;66.13;99568.22;7407053;19;1538;-59
2022/09/27 11:21:57;;;;;;;;;;;;;;;22.36;66.17;99563.03;7408517;19;1553;-59
2022/09/27 11:24:43;;;;;;;;;;;;;;;22.38;65.85;99557.44;7404325;19;1185;-59
2022/09/27 11:27:20;;;;;;;;;;;;;;;22.36;65.64;99549.56;7407141;19;1757;-59
2022/09/27 11:29:58;;;;;;;;;;;;;;;22.40;66.06;99547.31;7407383;19;1759;-59
2022/09/27 11:32:31;;;;;;;;;;;;;;;22.40;65.53;99541.94;7406672;19;1558;-58
2022/09/27 11:35:10;;;;;;;;;;;;;;;22.39;65.70;99529.50;7405537;19;1643;-59
2022/09/27 11:37:45;;;;;;;;;;;;;;;22.44;65.19;99517.16;7405363;19;1566;-59
2022/09/27 11:40:25;;;;;;;;;;;;;;;22.39;65.17;99526.81;7406323;19;1149;-59
2022/09/27 11:43:02;;;;;;;;;;;;;;;22.38;65.52;99527.81;7405412;19;1341;-60
2022/09/27 11:45:38;;;;;;;;;;;;;;;22.42;65.37;99527.28;7406350;19;1850;-59
2022/09/27 11:48:12;;;;;;;;;;;;;;;22.44;64.83;99527.06;7405926;19;1091;-59
2022/09/27 11:51:04;;;;;;;;;;;;;;;22.43;65.19;99514.63;7405780;19;1388;-59
2022/09/27 11:53:45;;;;;;;;;;;;;;;22.41;65.05;99539.06;7405465;19;1920;-59
2022/09/27 11:56:21;;;;;;;;;;;;;;;22.39;64.96;99527.63;7404809;19;1428;-59
2022/09/27 11:58:53;;;;;;;;;;;;;;;22.38;65.52;99519.72;7405177;19;1395;-59
2022/09/27 12:01:28;;;;;;;;;;;;;;;22.41;65.28;99532.84;7403966;19;1421;-59
2022/09/27 12:04:09;;;;;;;;;;;;;;;22.35;66.03;99526.34;7406794;19;1267;-59
2022/09/27 12:06:42;;;;;;;;;;;;;;;22.43;65.48;99534.31;7404706;19;1863;-58
2022/09/27 12:09:15;;;;;;;;;;;;;;;22.41;65.54;99522.88;7406166;19;1311;-59
2022/09/27 12:11:46;;;;;;;;;;;;;;;22.47;65.84;99517.78;7405074;19;1578;-59
2022/09/27 12:14:20;;;;;;;;;;;;;;;22.48;65.96;99522.97;7406216;19;1442;-61
2022/09/27 12:16:50;;;;;;;;;;;;;;;22.49;66.65;99508.50;7405524;19;1236;-61
2022/09/27 12:19:21;;;;;;;;;;;;;;;22.53;66.32;99519.72;7405613;19;1501;-59
2022/09/27 12:21:49;;;;;;;;;;;;;;;22.50;65.93;99520.94;7405214;19;1292;-60
2022/09/27 12:24:23;;;;;;;;;;;;;;;22.61;66.63;99522.31;7406560;19;1414;-60
2022/09/27 12:26:54;;;;;;;;;;;;;;;22.49;66.23;99513.88;7403083;19;1909;-60
2022/09/27 12:29:24;;;;;;;;;;;;;;;22.47;67.02;99525.88;7404943;19;1338;-60
2022/09/27 12:31:57;;;;;;;;;;;;;;;22.54;66.90;99519.53;7402451;19;1352;-59
2022/09/27 12:34:31;;;;;;;;;;;;;;;22.56;66.19;99525.56;7404269;19;1490;-60
2022/09/27 12:37:04;;;;;;;;;;;;;;;22.53;66.63;99512.47;7402489;19;1241;-59
2022/09/27 12:39:42;;;;;;;;;;;;;;;22.50;66.17;99518.25;7405464;19;1358;-59
2022/09/27 12:42:18;;;;;;;;;;;;;;;22.31;67.08;99516.16;7404547;19;1581;-59
2022/09/27 12:44:46;;;;;;;;;;;;;;;22.28;66.42;99511.13;7405422;19;1620;-59
2022/09/27 12:47:20;;;;;;;;;;;;;;;22.23;66.66;99512.47;7402688;19;1866;-59
2022/09/27 12:49:54;;;;;;;;;;;;;;;22.14;67.39;99502.81;7405353;19;1398;-59
2022/09/27 12:52:24;;;;;;;;;;;;;;;22.13;67.33;99503.88;7406010;19;1538;-59
2022/09/27 12:55:04;;;;;;;;;;;;;;;22.15;67.19;99501.00;7406481;19;934;-59
2022/09/27 12:57:39;;;;;;;;;;;;;;;22.11;66.98;99502.38;7404786;19;1200;-59
2022/09/27 13:00:13;;;;;;;;;;;;;;;22.18;66.33;99500.59;7403784;19;1445;-58
2022/09/27 13:02:56;;;;;;;;;;;;;;;22.37;66.04;99504.63;7403326;19;1581;-58
2022/09/27 13:05:42;;;;;;;;;;;;;;;22.34;65.62;99489.69;7403309;19;1867;-60
2022/09/27 13:08:26;;;;;;;;;;;;;;;22.40;65.48;99499.69;7401436;19;1836;-59
2022/09/27 13:11:01;;;;;;;;;;;;;;;22.43;65.57;99490.38;7403564;19;1296;-59
2022/09/27 13:13:30;;;;;;;;;;;;;;;22.46;65.09;99489.16;7404123;19;1294;-59
2022/09/27 13:16:00;;;;;;;;;;;;;;;22.39;65.15;99465.69;7404724;19;1197;-59
2022/09/27 13:18:33;;;;;;;;;;;;;;;22.40;65.33;99453.91;7404574;19;1358;-61
2022/09/27 13:21:02;;;;;;;;;;;;;;;22.39;65.89;99443.31;7402835;19;1655;-59
2022/09/27 13:23:46;;;;;;;;;;;;;;;22.44;65.06;99419.31;7405949;19;1190;-60
2022/09/27 13:26:41;;;;;;;;;;;;;;;22.36;65.36;99427.50;7403234;19;1850;-60
2022/09/27 13:29:22;;;;;;;;;;;;;;;22.40;65.37;99439.56;7402625;19;1177;-59